sensor_id;sensor_type;location;lat;lon;timestamp;pressure;altitude;pressure_sealevel;temperature;humidity
39954;BME280;25631;51.516;-0.470;2024-02-15T00:01:25;100994.55;;;11.11;47.91
39954;BME280;25631;51.516;-0.470;2024-02-15T00:04:02;100997.17;;;11.35;47.86
39954;BME280;25631;51.516;-0.470;2024-02-15T00:06:38;100994.63;;;11.32;47.76
39954;BME280;25631;51.516;-0.470;2024-02-15T00:09:15;100996.58;;;11.36;47.74
39954;BME280;25631;51.516;-0.470;2024-02-15T00:11:51;100997.76;;;11.51;47.79
39954;BME280;25631;51.516;-0.470;2024-02-15T00:14:29;101002.48;;;11.39;47.84
39954;BME280;25631;51.516;-0.470;2024-02-15T00:17:07;101003.46;;;11.49;47.87
39954;BME280;25631;51.516;-0.470;2024-02-15T00:19:44;101002.46;;;11.49;47.79
39954;BME280;25631;51.516;-0.470;2024-02-15T00:22:20;101001.24;;;11.37;47.88
39954;BME280;25631;51.516;-0.470;2024-02-15T00:24:56;101005.05;;;11.26;47.76
39954;BME280;25631;51.516;-0.470;2024-02-15T00:27:33;101007.34;;;11.48;47.81
39954;BME280;25631;51.516;-0.470;2024-02-15T00:30:11;101003.18;;;11.16;47.81
39954;BME280;25631;51.516;-0.470;2024-02-15T00:32:47;100998.65;;;11.43;47.76
39954;BME280;25631;51.516;-0.470;2024-02-15T00:35:24;100993.70;;;11.53;47.76
39954;BME280;25631;51.516;-0.470;2024-02-15T00:38:03;100995.12;;;11.43;47.82
39954;BME280;25631;51.516;-0.470;2024-02-15T00:40:40;100999.66;;;11.32;47.95
39954;BME280;25631;51.516;-0.470;2024-02-15T00:43:16;101004.14;;;11.23;47.98
39954;BME280;25631;51.516;-0.470;2024-02-15T00:45:53;101003.95;;;11.37;47.84
39954;BME280;25631;51.516;-0.470;2024-02-15T00:48:29;101003.22;;;11.28;47.83
39954;BME280;25631;51.516;-0.470;2024-02-15T00:51:06;101003.78;;;11.02;48.01
39954;BME280;25631;51.516;-0.470;2024-02-15T00:53:42;101005.03;;;11.24;47.97
39954;BME280;25631;51.516;-0.470;2024-02-15T00:56:19;101001.69;;;11.11;48.16
39954;BME280;25631;51.516;-0.470;2024-02-15T00:58:55;101002.52;;;11.23;48.28
39954;BME280;25631;51.516;-0.470;2024-02-15T01:01:31;100999.50;;;11.15;48.29
39954;BME280;25631;51.516;-0.470;2024-02-15T01:04:08;100990.27;;;11.03;48.49
39954;BME280;25631;51.516;-0.470;2024-02-15T01:06:44;100981.17;;;11.07;48.43
39954;BME280;25631;51.516;-0.470;2024-02-15T01:09:21;100974.71;;;11.44;48.26
39954;BME280;25631;51.516;-0.470;2024-02-15T01:11:58;100981.45;;;11.26;48.42
39954;BME280;25631;51.516;-0.470;2024-02-15T01:14:35;100984.70;;;11.25;48.46
39954;BME280;25631;51.516;-0.470;2024-02-15T01:17:12;100970.87;;;11.18;48.46
39954;BME280;25631;51.516;-0.470;2024-02-15T01:19:48;100972.10;;;11.38;48.33
39954;BME280;25631;51.516;-0.470;2024-02-15T01:22:24;100969.38;;;11.63;48.29
39954;BME280;25631;51.516;-0.470;2024-02-15T01:25:01;100967.65;;;11.47;48.27
39954;BME280;25631;51.516;-0.470;2024-02-15T01:27:38;100963.94;;;11.46;48.30
39954;BME280;25631;51.516;-0.470;2024-02-15T01:30:15;100959.34;;;11.52;48.24
39954;BME280;25631;51.516;-0.470;2024-02-15T01:32:51;100952.67;;;11.37;48.32
39954;BME280;25631;51.516;-0.470;2024-02-15T01:35:28;100957.50;;;11.27;48.30
39954;BME280;25631;51.516;-0.470;2024-02-15T01:38:05;100957.01;;;11.49;48.29
39954;BME280;25631;51.516;-0.470;2024-02-15T01:40:42;100960.19;;;11.24;48.27
39954;BME280;25631;51.516;-0.470;2024-02-15T01:43:18;100954.75;;;11.51;48.22
39954;BME280;25631;51.516;-0.470;2024-02-15T01:45:55;100958.94;;;11.50;48.36
39954;BME280;25631;51.516;-0.470;2024-02-15T01:48:32;100964.64;;;11.38;48.41
39954;BME280;25631;51.516;-0.470;2024-02-15T01:51:10;100969.35;;;11.62;48.36
39954;BME280;25631;51.516;-0.470;2024-02-15T01:53:47;100967.08;;;11.53;48.35
39954;BME280;25631;51.516;-0.470;2024-02-15T01:56:25;100962.02;;;11.49;48.18
39954;BME280;25631;51.516;-0.470;2024-02-15T01:59:02;100962.07;;;11.41;48.17
39954;BME280;25631;51.516;-0.470;2024-02-15T02:01:39;100959.90;;;11.55;48.12
39954;BME280;25631;51.516;-0.470;2024-02-15T02:04:15;100958.41;;;11.68;48.20
39954;BME280;25631;51.516;-0.470;2024-02-15T02:06:51;100955.90;;;11.60;48.18
39954;BME280;25631;51.516;-0.470;2024-02-15T02:09:28;100950.86;;;11.62;48.16
39954;BME280;25631;51.516;-0.470;2024-02-15T02:12:05;100951.76;;;11.74;48.13
39954;BME280;25631;51.516;-0.470;2024-02-15T02:14:41;100944.20;;;11.45;48.12
39954;BME280;25631;51.516;-0.470;2024-02-15T02:17:18;100935.64;;;11.64;48.01
39954;BME280;25631;51.516;-0.470;2024-02-15T02:19:54;100931.35;;;11.61;47.97
39954;BME280;25631;51.516;-0.470;2024-02-15T02:22:30;100929.36;;;11.68;47.82
39954;BME280;25631;51.516;-0.470;2024-02-15T02:25:08;100919.49;;;11.90;47.82
39954;BME280;25631;51.516;-0.470;2024-02-15T02:27:46;100917.91;;;11.52;47.75
39954;BME280;25631;51.516;-0.470;2024-02-15T02:30:23;100923.48;;;11.89;47.69
39954;BME280;25631;51.516;-0.470;2024-02-15T02:32:59;100918.00;;;11.66;47.64
39954;BME280;25631;51.516;-0.470;2024-02-15T02:35:36;100921.52;;;11.57;47.70
39954;BME280;25631;51.516;-0.470;2024-02-15T02:38:13;100923.55;;;11.85;47.69
39954;BME280;25631;51.516;-0.470;2024-02-15T02:40:49;100916.97;;;11.69;47.80
39954;BME280;25631;51.516;-0.470;2024-02-15T02:43:26;100910.73;;;11.67;47.81
39954;BME280;25631;51.516;-0.470;2024-02-15T02:46:02;100905.76;;;11.63;47.85
39954;BME280;25631;51.516;-0.470;2024-02-15T02:48:39;100896.13;;;11.87;47.75
39954;BME280;25631;51.516;-0.470;2024-02-15T02:51:16;100903.73;;;11.42;47.78
39954;BME280;25631;51.516;-0.470;2024-02-15T02:53:52;100898.43;;;11.63;47.74
39954;BME280;25631;51.516;-0.470;2024-02-15T02:56:29;100894.85;;;11.76;47.70
39954;BME280;25631;51.516;-0.470;2024-02-15T02:59:05;100896.69;;;11.60;47.84
39954;BME280;25631;51.516;-0.470;2024-02-15T03:01:41;100892.29;;;11.59;47.83
39954;BME280;25631;51.516;-0.470;2024-02-15T03:04:18;100898.48;;;11.48;47.98
39954;BME280;25631;51.516;-0.470;2024-02-15T03:06:54;100884.43;;;11.71;47.81
39954;BME280;25631;51.516;-0.470;2024-02-15T03:09:31;100881.30;;;11.59;47.81
39954;BME280;25631;51.516;-0.470;2024-02-15T03:12:07;100883.80;;;11.67;47.83
39954;BME280;25631;51.516;-0.470;2024-02-15T03:14:44;100883.33;;;11.60;47.91
39954;BME280;25631;51.516;-0.470;2024-02-15T03:17:20;100887.47;;;11.51;48.01
39954;BME280;25631;51.516;-0.470;2024-02-15T03:19:57;100878.85;;;11.39;48.02
39954;BME280;25631;51.516;-0.470;2024-02-15T03:22:33;100876.69;;;11.50;48.11
39954;BME280;25631;51.516;-0.470;2024-02-15T03:25:10;100877.70;;;11.29;48.25
39954;BME280;25631;51.516;-0.470;2024-02-15T03:27:46;100858.71;;;11.14;48.17
39954;BME280;25631;51.516;-0.470;2024-02-15T03:30:25;100869.08;;;11.49;48.11
39954;BME280;25631;51.516;-0.470;2024-02-15T03:33:02;100866.80;;;11.29;48.10
39954;BME280;25631;51.516;-0.470;2024-02-15T03:35:38;100863.58;;;11.42;48.00
39954;BME280;25631;51.516;-0.470;2024-02-15T03:38:15;100868.12;;;11.48;48.02
39954;BME280;25631;51.516;-0.470;2024-02-15T03:40:51;100865.32;;;11.29;48.01
39954;BME280;25631;51.516;-0.470;2024-02-15T03:43:28;100864.19;;;11.49;48.04
39954;BME280;25631;51.516;-0.470;2024-02-15T03:46:04;100863.69;;;11.49;48.01
39954;BME280;25631;51.516;-0.470;2024-02-15T03:48:42;100862.42;;;11.54;47.98
39954;BME280;25631;51.516;-0.470;2024-02-15T03:51:19;100864.92;;;11.33;48.07
39954;BME280;25631;51.516;-0.470;2024-02-15T03:53:55;100862.34;;;11.49;48.09
39954;BME280;25631;51.516;-0.470;2024-02-15T03:56:32;100859.97;;;11.54;48.07
39954;BME280;25631;51.516;-0.470;2024-02-15T03:59:08;100857.34;;;11.33;48.27
39954;BME280;25631;51.516;-0.470;2024-02-15T04:01:45;100844.42;;;11.32;48.15
39954;BME280;25631;51.516;-0.470;2024-02-15T04:04:22;100833.16;;;11.31;48.19
39954;BME280;25631;51.516;-0.470;2024-02-15T04:06:58;100836.30;;;11.34;48.16
39954;BME280;25631;51.516;-0.470;2024-02-15T04:09:34;100846.23;;;11.39;48.24
39954;BME280;25631;51.516;-0.470;2024-02-15T04:12:11;100853.25;;;11.55;48.27
39954;BME280;25631;51.516;-0.470;2024-02-15T04:14:48;100850.98;;;11.29;48.26
39954;BME280;25631;51.516;-0.470;2024-02-15T04:17:24;100839.55;;;11.36;48.19
39954;BME280;25631;51.516;-0.470;2024-02-15T04:20:01;100843.85;;;11.25;48.21
39954;BME280;25631;51.516;-0.470;2024-02-15T04:22:37;100840.79;;;11.35;48.23
39954;BME280;25631;51.516;-0.470;2024-02-15T04:25:14;100836.21;;;11.06;48.34
39954;BME280;25631;51.516;-0.470;2024-02-15T04:27:50;100830.23;;;11.28;48.34
39954;BME280;25631;51.516;-0.470;2024-02-15T04:30:27;100824.68;;;11.21;48.35
39954;BME280;25631;51.516;-0.470;2024-02-15T04:33:04;100830.48;;;11.27;48.31
39954;BME280;25631;51.516;-0.470;2024-02-15T04:35:40;100836.19;;;11.34;48.24
39954;BME280;25631;51.516;-0.470;2024-02-15T04:38:17;100832.72;;;11.26;48.51
39954;BME280;25631;51.516;-0.470;2024-02-15T04:40:53;100832.55;;;11.19;48.52
39954;BME280;25631;51.516;-0.470;2024-02-15T04:43:30;100828.32;;;11.23;48.59
39954;BME280;25631;51.516;-0.470;2024-02-15T04:46:06;100829.71;;;11.24;48.64
39954;BME280;25631;51.516;-0.470;2024-02-15T04:48:42;100830.24;;;11.12;48.87
39954;BME280;25631;51.516;-0.470;2024-02-15T04:51:19;100827.10;;;11.16;48.86
39954;BME280;25631;51.516;-0.470;2024-02-15T04:53:55;100826.92;;;11.02;49.00
39954;BME280;25631;51.516;-0.470;2024-02-15T04:56:32;100830.07;;;11.18;49.00
39954;BME280;25631;51.516;-0.470;2024-02-15T04:59:09;100828.77;;;11.03;49.27
39954;BME280;25631;51.516;-0.470;2024-02-15T05:01:46;100835.60;;;11.05;49.26
39954;BME280;25631;51.516;-0.470;2024-02-15T05:04:22;100830.52;;;10.82;49.42
39954;BME280;25631;51.516;-0.470;2024-02-15T05:06:59;100833.32;;;11.10;49.35
39954;BME280;25631;51.516;-0.470;2024-02-15T05:09:35;100832.03;;;11.06;49.38
39954;BME280;25631;51.516;-0.470;2024-02-15T05:12:22;100830.91;;;11.10;49.67
39954;BME280;25631;51.516;-0.470;2024-02-15T05:14:58;100829.96;;;11.27;49.75
39954;BME280;25631;51.516;-0.470;2024-02-15T05:17:35;100830.08;;;11.08;49.92
39954;BME280;25631;51.516;-0.470;2024-02-15T05:20:12;100833.33;;;10.93;50.00
39954;BME280;25631;51.516;-0.470;2024-02-15T05:22:48;100833.91;;;11.18;49.86
39954;BME280;25631;51.516;-0.470;2024-02-15T05:25:25;100832.99;;;11.11;49.90
39954;BME280;25631;51.516;-0.470;2024-02-15T05:28:01;100832.65;;;11.19;49.93
39954;BME280;25631;51.516;-0.470;2024-02-15T05:30:38;100834.20;;;11.47;50.01
39954;BME280;25631;51.516;-0.470;2024-02-15T05:33:14;100829.12;;;11.25;50.04
39954;BME280;25631;51.516;-0.470;2024-02-15T05:35:51;100830.25;;;11.27;49.94
39954;BME280;25631;51.516;-0.470;2024-02-15T05:38:27;100823.84;;;11.34;49.93
39954;BME280;25631;51.516;-0.470;2024-02-15T05:41:04;100822.31;;;11.41;49.82
39954;BME280;25631;51.516;-0.470;2024-02-15T05:43:40;100820.01;;;11.29;49.92
39954;BME280;25631;51.516;-0.470;2024-02-15T05:46:17;100816.47;;;11.55;49.78
39954;BME280;25631;51.516;-0.470;2024-02-15T05:48:53;100818.53;;;11.34;49.81
39954;BME280;25631;51.516;-0.470;2024-02-15T05:51:30;100816.42;;;11.34;49.90
39954;BME280;25631;51.516;-0.470;2024-02-15T05:54:07;100817.39;;;11.47;49.90
39954;BME280;25631;51.516;-0.470;2024-02-15T05:56:43;100815.47;;;11.41;49.94
39954;BME280;25631;51.516;-0.470;2024-02-15T05:59:20;100814.31;;;11.55;49.91
39954;BME280;25631;51.516;-0.470;2024-02-15T06:01:56;100815.43;;;11.54;49.83
39954;BME280;25631;51.516;-0.470;2024-02-15T06:04:33;100812.19;;;11.50;49.87
39954;BME280;25631;51.516;-0.470;2024-02-15T06:07:09;100813.96;;;11.72;49.79
39954;BME280;25631;51.516;-0.470;2024-02-15T06:09:45;100813.47;;;11.54;49.79
39954;BME280;25631;51.516;-0.470;2024-02-15T06:12:22;100811.30;;;11.80;49.81
39954;BME280;25631;51.516;-0.470;2024-02-15T06:14:58;100806.17;;;11.67;49.67
39954;BME280;25631;51.516;-0.470;2024-02-15T06:17:37;100803.66;;;11.68;49.64
39954;BME280;25631;51.516;-0.470;2024-02-15T06:20:14;100801.47;;;11.97;49.45
39954;BME280;25631;51.516;-0.470;2024-02-15T06:22:51;100800.69;;;11.91;49.41
39954;BME280;25631;51.516;-0.470;2024-02-15T06:25:27;100802.41;;;11.52;49.39
39954;BME280;25631;51.516;-0.470;2024-02-15T06:28:04;100795.97;;;12.05;49.28
39954;BME280;25631;51.516;-0.470;2024-02-15T06:30:41;100790.55;;;11.84;49.29
39954;BME280;25631;51.516;-0.470;2024-02-15T06:33:17;100790.89;;;12.08;49.16
39954;BME280;25631;51.516;-0.470;2024-02-15T06:35:53;100794.95;;;12.03;49.04
39954;BME280;25631;51.516;-0.470;2024-02-15T06:38:30;100799.09;;;11.93;48.94
39954;BME280;25631;51.516;-0.470;2024-02-15T06:41:06;100803.53;;;11.78;48.88
39954;BME280;25631;51.516;-0.470;2024-02-15T06:43:43;100801.23;;;11.67;48.83
39954;BME280;25631;51.516;-0.470;2024-02-15T06:46:20;100800.82;;;11.77;48.82
39954;BME280;25631;51.516;-0.470;2024-02-15T06:48:56;100807.43;;;12.18;48.75
39954;BME280;25631;51.516;-0.470;2024-02-15T06:51:32;100808.97;;;11.93;48.54
39954;BME280;25631;51.516;-0.470;2024-02-15T06:54:09;100808.95;;;11.89;48.59
39954;BME280;25631;51.516;-0.470;2024-02-15T06:56:46;100809.61;;;11.81;48.58
39954;BME280;25631;51.516;-0.470;2024-02-15T06:59:22;100812.52;;;11.82;48.55
39954;BME280;25631;51.516;-0.470;2024-02-15T07:01:59;100815.04;;;11.50;48.62
39954;BME280;25631;51.516;-0.470;2024-02-15T07:04:36;100816.62;;;11.99;48.61
39954;BME280;25631;51.516;-0.470;2024-02-15T07:07:12;100809.15;;;12.02;48.56
39954;BME280;25631;51.516;-0.470;2024-02-15T07:09:48;100814.51;;;11.66;48.47
39954;BME280;25631;51.516;-0.470;2024-02-15T07:12:25;100814.67;;;11.80;48.41
39954;BME280;25631;51.516;-0.470;2024-02-15T07:15:01;100816.24;;;11.79;48.26
39954;BME280;25631;51.516;-0.470;2024-02-15T07:17:38;100817.74;;;11.69;48.18
39954;BME280;25631;51.516;-0.470;2024-02-15T07:20:14;100822.94;;;11.73;48.08
39954;BME280;25631;51.516;-0.470;2024-02-15T07:22:50;100815.60;;;11.57;47.97
39954;BME280;25631;51.516;-0.470;2024-02-15T07:25:27;100812.62;;;11.49;47.84
39954;BME280;25631;51.516;-0.470;2024-02-15T07:28:04;100809.86;;;11.61;47.69
39954;BME280;25631;51.516;-0.470;2024-02-15T07:30:40;100810.16;;;11.58;47.56
39954;BME280;25631;51.516;-0.470;2024-02-15T07:33:17;100804.82;;;11.73;47.43
39954;BME280;25631;51.516;-0.470;2024-02-15T07:35:53;100807.50;;;11.90;47.27
39954;BME280;25631;51.516;-0.470;2024-02-15T07:38:29;100799.15;;;11.56;47.12
39954;BME280;25631;51.516;-0.470;2024-02-15T07:41:06;100798.76;;;11.70;47.11
39954;BME280;25631;51.516;-0.470;2024-02-15T07:43:42;100798.94;;;11.91;47.03
39954;BME280;25631;51.516;-0.470;2024-02-15T07:46:19;100797.51;;;11.51;46.95
39954;BME280;25631;51.516;-0.470;2024-02-15T07:48:55;100805.01;;;11.60;46.81
39954;BME280;25631;51.516;-0.470;2024-02-15T07:51:31;100813.41;;;11.76;46.64
39954;BME280;25631;51.516;-0.470;2024-02-15T07:54:08;100814.56;;;11.79;46.62
39954;BME280;25631;51.516;-0.470;2024-02-15T07:56:45;100810.66;;;11.60;46.76
39954;BME280;25631;51.516;-0.470;2024-02-15T07:59:21;100808.49;;;11.45;46.84
39954;BME280;25631;51.516;-0.470;2024-02-15T08:01:57;100800.37;;;11.25;46.80
39954;BME280;25631;51.516;-0.470;2024-02-15T08:04:34;100795.48;;;11.06;46.75
39954;BME280;25631;51.516;-0.470;2024-02-15T08:07:10;100793.03;;;11.15;46.77
39954;BME280;25631;51.516;-0.470;2024-02-15T08:09:47;100787.87;;;11.51;46.69
39954;BME280;25631;51.516;-0.470;2024-02-15T08:12:24;100789.56;;;11.29;46.81
39954;BME280;25631;51.516;-0.470;2024-02-15T08:15:00;100787.35;;;11.14;46.80
39954;BME280;25631;51.516;-0.470;2024-02-15T08:17:36;100783.76;;;11.23;46.81
39954;BME280;25631;51.516;-0.470;2024-02-15T08:20:14;100788.80;;;11.43;46.83
39954;BME280;25631;51.516;-0.470;2024-02-15T08:22:50;100793.34;;;11.47;46.73
39954;BME280;25631;51.516;-0.470;2024-02-15T08:25:27;100783.96;;;11.31;46.77
39954;BME280;25631;51.516;-0.470;2024-02-15T08:28:04;100781.28;;;11.25;46.73
39954;BME280;25631;51.516;-0.470;2024-02-15T08:30:41;100785.55;;;11.30;46.63
39954;BME280;25631;51.516;-0.470;2024-02-15T08:33:18;100783.28;;;11.39;46.55
39954;BME280;25631;51.516;-0.470;2024-02-15T08:35:54;100781.24;;;11.51;46.35
39954;BME280;25631;51.516;-0.470;2024-02-15T08:38:31;100770.97;;;11.55;46.23
39954;BME280;25631;51.516;-0.470;2024-02-15T08:41:07;100761.80;;;11.49;46.19
39954;BME280;25631;51.516;-0.470;2024-02-15T08:43:44;100756.58;;;11.45;46.15
39954;BME280;25631;51.516;-0.470;2024-02-15T08:46:20;100759.57;;;11.37;46.03
39954;BME280;25631;51.516;-0.470;2024-02-15T08:48:57;100759.76;;;11.44;45.91
39954;BME280;25631;51.516;-0.470;2024-02-15T08:51:33;100762.57;;;11.64;45.83
39954;BME280;25631;51.516;-0.470;2024-02-15T08:54:09;100760.35;;;11.53;45.73
39954;BME280;25631;51.516;-0.470;2024-02-15T08:56:46;100754.85;;;11.74;45.58
39954;BME280;25631;51.516;-0.470;2024-02-15T08:59:23;100749.92;;;11.85;45.46
39954;BME280;25631;51.516;-0.470;2024-02-15T09:01:59;100744.90;;;12.05;45.28
39954;BME280;25631;51.516;-0.470;2024-02-15T09:04:35;100746.30;;;11.40;45.09
39954;BME280;25631;51.516;-0.470;2024-02-15T09:07:12;100738.64;;;11.93;45.05
39954;BME280;25631;51.516;-0.470;2024-02-15T09:09:48;100740.13;;;11.73;45.10
39954;BME280;25631;51.516;-0.470;2024-02-15T09:12:25;100734.72;;;11.89;45.01
39954;BME280;25631;51.516;-0.470;2024-02-15T09:15:01;100732.51;;;11.66;44.80
39954;BME280;25631;51.516;-0.470;2024-02-15T09:17:37;100731.36;;;11.80;44.70
39954;BME280;25631;51.516;-0.470;2024-02-15T09:20:15;100728.00;;;12.13;44.44
39954;BME280;25631;51.516;-0.470;2024-02-15T09:22:52;100733.68;;;11.81;44.27
39954;BME280;25631;51.516;-0.470;2024-02-15T09:25:29;100728.94;;;11.78;43.91
39954;BME280;25631;51.516;-0.470;2024-02-15T09:28:06;100727.13;;;11.90;43.89
39954;BME280;25631;51.516;-0.470;2024-02-15T09:30:42;100733.00;;;11.99;43.96
39954;BME280;25631;51.516;-0.470;2024-02-15T09:33:19;100737.46;;;11.68;43.95
39954;BME280;25631;51.516;-0.470;2024-02-15T09:35:56;100740.84;;;11.86;43.82
39954;BME280;25631;51.516;-0.470;2024-02-15T09:38:33;100735.85;;;12.04;43.63
39954;BME280;25631;51.516;-0.470;2024-02-15T09:41:09;100728.47;;;11.99;43.44
39954;BME280;25631;51.516;-0.470;2024-02-15T09:43:46;100724.04;;;11.86;43.52
39954;BME280;25631;51.516;-0.470;2024-02-15T09:46:22;100727.45;;;11.63;43.39
39954;BME280;25631;51.516;-0.470;2024-02-15T09:48:58;100722.52;;;11.96;43.27
39954;BME280;25631;51.516;-0.470;2024-02-15T09:51:36;100714.39;;;11.88;43.04
39954;BME280;25631;51.516;-0.470;2024-02-15T09:54:14;100711.37;;;11.98;43.02
39954;BME280;25631;51.516;-0.470;2024-02-15T09:56:52;100705.37;;;12.32;42.92
39954;BME280;25631;51.516;-0.470;2024-02-15T09:59:29;100703.67;;;12.06;42.98
39954;BME280;25631;51.516;-0.470;2024-02-15T10:02:06;100699.74;;;12.05;42.76
39954;BME280;25631;51.516;-0.470;2024-02-15T10:04:43;100696.68;;;12.15;42.77
39954;BME280;25631;51.516;-0.470;2024-02-15T10:07:19;100696.73;;;12.26;42.72
39954;BME280;25631;51.516;-0.470;2024-02-15T10:09:56;100691.64;;;12.33;42.46
39954;BME280;25631;51.516;-0.470;2024-02-15T10:12:37;100692.73;;;12.46;42.55
39954;BME280;25631;51.516;-0.470;2024-02-15T10:15:28;100690.16;;;12.31;42.47
39954;BME280;25631;51.516;-0.470;2024-02-15T10:18:07;100689.63;;;12.38;41.93
39954;BME280;25631;51.516;-0.470;2024-02-15T10:20:57;100680.55;;;12.42;42.13
39954;BME280;25631;51.516;-0.470;2024-02-15T10:23:34;100679.18;;;12.61;42.03
39954;BME280;25631;51.516;-0.470;2024-02-15T10:26:19;100671.01;;;12.46;41.74
39954;BME280;25631;51.516;-0.470;2024-02-15T10:29:05;100663.41;;;12.80;41.59
39954;BME280;25631;51.516;-0.470;2024-02-15T10:31:53;100660.79;;;12.66;41.65
39954;BME280;25631;51.516;-0.470;2024-02-15T10:34:31;100662.47;;;12.68;41.50
39954;BME280;25631;51.516;-0.470;2024-02-15T10:37:12;100659.98;;;12.80;41.66
39954;BME280;25631;51.516;-0.470;2024-02-15T10:40:04;100660.59;;;13.07;41.62
39954;BME280;25631;51.516;-0.470;2024-02-15T10:42:41;100660.91;;;13.10;41.48
39954;BME280;25631;51.516;-0.470;2024-02-15T10:45:18;100656.71;;;13.39;41.38
39954;BME280;25631;51.516;-0.470;2024-02-15T10:47:55;100651.25;;;13.05;40.97
39954;BME280;25631;51.516;-0.470;2024-02-15T10:50:31;100650.40;;;13.17;40.88
39954;BME280;25631;51.516;-0.470;2024-02-15T10:53:13;100647.03;;;13.33;41.08
39954;BME280;25631;51.516;-0.470;2024-02-15T10:56:04;100644.71;;;13.62;41.18
39954;BME280;25631;51.516;-0.470;2024-02-15T10:58:49;100643.31;;;13.66;40.85
39954;BME280;25631;51.516;-0.470;2024-02-15T11:01:27;100636.93;;;13.73;40.69
39954;BME280;25631;51.516;-0.470;2024-02-15T11:04:08;100636.86;;;14.01;40.71
39954;BME280;25631;51.516;-0.470;2024-02-15T11:06:45;100634.63;;;13.44;40.57
39954;BME280;25631;51.516;-0.470;2024-02-15T11:09:22;100633.22;;;13.71;40.65
39954;BME280;25631;51.516;-0.470;2024-02-15T11:12:00;100624.95;;;13.66;40.73
39954;BME280;25631;51.516;-0.470;2024-02-15T11:14:36;100624.47;;;13.62;40.77
39954;BME280;25631;51.516;-0.470;2024-02-15T11:17:45;100614.92;;;13.63;40.64
39954;BME280;25631;51.516;-0.470;2024-02-15T11:20:49;100617.99;;;13.76;40.70
39954;BME280;25631;51.516;-0.470;2024-02-15T11:23:26;100610.65;;;13.90;40.46
39954;BME280;25631;51.516;-0.470;2024-02-15T11:26:04;100598.22;;;13.73;40.57
39954;BME280;25631;51.516;-0.470;2024-02-15T11:28:43;100590.97;;;13.79;40.60
39954;BME280;25631;51.516;-0.470;2024-02-15T11:31:55;100582.97;;;13.85;40.36
39954;BME280;25631;51.516;-0.470;2024-02-15T11:34:47;100580.63;;;13.81;40.49
39954;BME280;25631;51.516;-0.470;2024-02-15T11:37:57;100576.47;;;13.81;40.54
39954;BME280;25631;51.516;-0.470;2024-02-15T11:41:01;100568.79;;;13.92;40.55
39954;BME280;25631;51.516;-0.470;2024-02-15T11:43:53;100572.90;;;13.99;40.56
39954;BME280;25631;51.516;-0.470;2024-02-15T11:46:29;100572.04;;;14.00;40.73
39954;BME280;25631;51.516;-0.470;2024-02-15T11:49:06;100567.53;;;14.09;40.87
39954;BME280;25631;51.516;-0.470;2024-02-15T11:51:42;100567.84;;;14.29;40.92
39954;BME280;25631;51.516;-0.470;2024-02-15T11:54:20;100563.36;;;14.22;40.64
39954;BME280;25631;51.516;-0.470;2024-02-15T11:56:57;100563.69;;;14.09;40.47
39954;BME280;25631;51.516;-0.470;2024-02-15T11:59:41;100560.24;;;14.54;40.23
39954;BME280;25631;51.516;-0.470;2024-02-15T12:02:18;100551.15;;;14.41;40.29
39954;BME280;25631;51.516;-0.470;2024-02-15T12:04:55;100552.94;;;14.55;40.43
39954;BME280;25631;51.516;-0.470;2024-02-15T12:07:33;100544.52;;;14.68;40.38
39954;BME280;25631;51.516;-0.470;2024-02-15T12:10:16;100544.39;;;14.73;40.40
39954;BME280;25631;51.516;-0.470;2024-02-15T12:12:53;100543.13;;;14.51;39.85
39954;BME280;25631;51.516;-0.470;2024-02-15T12:15:30;100532.91;;;14.75;40.02
39954;BME280;25631;51.516;-0.470;2024-02-15T12:18:14;100527.67;;;15.11;39.88
39954;BME280;25631;51.516;-0.470;2024-02-15T12:20:51;100524.59;;;15.22;39.71
39954;BME280;25631;51.516;-0.470;2024-02-15T12:23:27;100524.55;;;14.99;39.40
39954;BME280;25631;51.516;-0.470;2024-02-15T12:26:04;100521.59;;;14.80;39.23
39954;BME280;25631;51.516;-0.470;2024-02-15T12:28:41;100519.08;;;14.74;39.38
39954;BME280;25631;51.516;-0.470;2024-02-15T12:31:18;100519.58;;;14.67;39.54
39954;BME280;25631;51.516;-0.470;2024-02-15T12:34:02;100522.20;;;14.87;39.61
39954;BME280;25631;51.516;-0.470;2024-02-15T12:36:38;100522.02;;;14.96;39.54
39954;BME280;25631;51.516;-0.470;2024-02-15T12:39:24;100521.77;;;15.11;39.28
39954;BME280;25631;51.516;-0.470;2024-02-15T12:42:01;100521.57;;;14.91;39.30
39954;BME280;25631;51.516;-0.470;2024-02-15T12:44:43;100517.59;;;14.85;39.03
39954;BME280;25631;51.516;-0.470;2024-02-15T12:47:21;100517.99;;;14.92;38.72
39954;BME280;25631;51.516;-0.470;2024-02-15T12:49:57;100512.33;;;14.71;38.33
39954;BME280;25631;51.516;-0.470;2024-02-15T12:52:36;100517.13;;;14.64;38.59
39954;BME280;25631;51.516;-0.470;2024-02-15T12:55:14;100516.84;;;14.78;38.64
39954;BME280;25631;51.516;-0.470;2024-02-15T12:57:52;100512.95;;;14.70;38.73
39954;BME280;25631;51.516;-0.470;2024-02-15T13:00:30;100510.21;;;14.63;38.91
39954;BME280;25631;51.516;-0.470;2024-02-15T13:03:08;100507.60;;;14.82;38.84
39954;BME280;25631;51.516;-0.470;2024-02-15T13:05:45;100501.45;;;14.94;38.65
39954;BME280;25631;51.516;-0.470;2024-02-15T13:08:21;100500.89;;;15.04;38.71
39954;BME280;25631;51.516;-0.470;2024-02-15T13:10:58;100499.31;;;15.22;38.73
39954;BME280;25631;51.516;-0.470;2024-02-15T13:13:34;100496.92;;;15.29;38.76
39954;BME280;25631;51.516;-0.470;2024-02-15T13:16:11;100497.20;;;15.39;38.66
39954;BME280;25631;51.516;-0.470;2024-02-15T13:18:47;100492.28;;;15.63;37.68
39954;BME280;25631;51.516;-0.470;2024-02-15T13:21:24;100487.11;;;15.66;37.27
39954;BME280;25631;51.516;-0.470;2024-02-15T13:24:00;100486.12;;;15.88;36.93
39954;BME280;25631;51.516;-0.470;2024-02-15T13:26:37;100483.20;;;15.79;37.24
39954;BME280;25631;51.516;-0.470;2024-02-15T13:29:13;100479.07;;;16.05;36.87
39954;BME280;25631;51.516;-0.470;2024-02-15T13:31:50;100478.66;;;15.71;36.79
39954;BME280;25631;51.516;-0.470;2024-02-15T13:34:26;100472.15;;;15.89;36.68